sensor_id;sensor_type;location;lat;lon;timestamp;P1;durP1;ratioP1;P2;durP2;ratioP2
32106;SDS011;18622;51.998;10.440;2022-11-15T03:16:05;5.97;;;2.95;;
32106;SDS011;18622;51.998;10.440;2022-11-15T03:19:01;7.17;;;3.80;;
32106;SDS011;18622;51.998;10.440;2022-11-15T03:21:29;12.50;;;3.62;;
32106;SDS011;18622;51.998;10.440;2022-11-15T03:24:00;7.33;;;3.20;;
32106;SDS011;18622;51.998;10.440;2022-11-15T03:26:29;4.33;;;3.30;;
32106;SDS011;18622;51.998;10.440;2022-11-15T03:29:01;10.03;;;3.37;;
32106;SDS011;18622;51.998;10.440;2022-11-15T03:31:31;8.28;;;3.02;;
32106;SDS011;18622;51.998;10.440;2022-11-15T03:34:32;5.37;;;2.93;;
32106;SDS011;18622;51.998;10.440;2022-11-15T03:37:05;6.60;;;2.83;;
32106;SDS011;18622;51.998;10.440;2022-11-15T03:39:35;5.28;;;2.50;;
32106;SDS011;18622;51.998;10.440;2022-11-15T03:42:22;7.77;;;3.30;;
32106;SDS011;18622;51.998;10.440;2022-11-15T03:44:59;8.13;;;3.77;;
32106;SDS011;18622;51.998;10.440;2022-11-15T03:47:49;5.28;;;2.90;;
32106;SDS011;18622;51.998;10.440;2022-11-15T03:50:22;4.40;;;2.87;;
32106;SDS011;18622;51.998;10.440;2022-11-15T03:52:51;5.70;;;3.08;;
32106;SDS011;18622;51.998;10.440;2022-11-15T03:55:22;7.10;;;2.40;;
32106;SDS011;18622;51.998;10.440;2022-11-15T03:57:50;6.87;;;2.47;;
32106;SDS011;18622;51.998;10.440;2022-11-15T04:33:28;5.00;;;2.70;;
32106;SDS011;18622;51.998;10.440;2022-11-15T04:35:56;6.00;;;2.10;;
32106;SDS011;18622;51.998;10.440;2022-11-15T04:38:42;4.57;;;2.37;;
32106;SDS011;18622;51.998;10.440;2022-11-15T04:41:09;5.13;;;2.77;;
32106;SDS011;18622;51.998;10.440;2022-11-15T04:43:37;4.87;;;2.40;;
32106;SDS011;18622;51.998;10.440;2022-11-15T04:46:05;5.60;;;2.80;;
32106;SDS011;18622;51.998;10.440;2022-11-15T04:48:33;3.87;;;2.40;;
32106;SDS011;18622;51.998;10.440;2022-11-15T04:51:01;4.43;;;2.40;;
32106;SDS011;18622;51.998;10.440;2022-11-15T04:53:28;3.83;;;2.27;;
32106;SDS011;18622;51.998;10.440;2022-11-15T04:55:56;4.93;;;3.20;;
32106;SDS011;18622;51.998;10.440;2022-11-15T04:58:24;4.90;;;2.60;;
32106;SDS011;18622;51.998;10.440;2022-11-15T05:00:52;5.50;;;2.60;;
32106;SDS011;18622;51.998;10.440;2022-11-15T05:03:20;3.57;;;2.60;;
32106;SDS011;18622;51.998;10.440;2022-11-15T05:06:05;5.30;;;2.73;;
32106;SDS011;18622;51.998;10.440;2022-11-15T05:08:33;7.97;;;3.50;;
32106;SDS011;18622;51.998;10.440;2022-11-15T05:11:01;3.50;;;2.80;;
32106;SDS011;18622;51.998;10.440;2022-11-15T05:13:29;7.67;;;3.30;;
32106;SDS011;18622;51.998;10.440;2022-11-15T05:15:57;6.37;;;3.13;;
32106;SDS011;18622;51.998;10.440;2022-11-15T05:18:25;5.83;;;3.77;;
32106;SDS011;18622;51.998;10.440;2022-11-15T05:20:53;7.40;;;4.47;;
32106;SDS011;18622;51.998;10.440;2022-11-15T05:23:20;3.63;;;2.60;;
32106;SDS011;18622;51.998;10.440;2022-11-15T05:25:48;4.37;;;2.60;;
32106;SDS011;18622;51.998;10.440;2022-11-15T05:28:16;7.23;;;3.30;;
32106;SDS011;18622;51.998;10.440;2022-11-15T05:30:44;4.87;;;3.20;;
32106;SDS011;18622;51.998;10.440;2022-11-15T05:33:12;4.77;;;2.70;;
32106;SDS011;18622;51.998;10.440;2022-11-15T05:35:40;4.73;;;2.30;;
32106;SDS011;18622;51.998;10.440;2022-11-15T05:38:10;5.75;;;2.20;;
32106;SDS011;18622;51.998;10.440;2022-11-15T05:40:38;6.20;;;2.77;;
32106;SDS011;18622;51.998;10.440;2022-11-15T05:43:06;4.37;;;2.70;;
32106;SDS011;18622;51.998;10.440;2022-11-15T05:45:33;7.10;;;3.10;;
32106;SDS011;18622;51.998;10.440;2022-11-15T05:50:41;7.57;;;2.53;;
32106;SDS011;18622;51.998;10.440;2022-11-15T05:53:11;6.67;;;3.12;;
32106;SDS011;18622;51.998;10.440;2022-11-15T05:55:42;7.27;;;2.80;;
32106;SDS011;18622;51.998;10.440;2022-11-15T05:58:09;6.37;;;2.83;;
32106;SDS011;18622;51.998;10.440;2022-11-15T06:00:37;6.00;;;3.10;;
32106;SDS011;18622;51.998;10.440;2022-11-15T06:03:06;6.20;;;2.73;;
32106;SDS011;18622;51.998;10.440;2022-11-15T06:05:33;17.03;;;2.90;;
32106;SDS011;18622;51.998;10.440;2022-11-15T06:08:03;5.97;;;3.53;;
32106;SDS011;18622;51.998;10.440;2022-11-15T06:10:33;17.40;;;8.03;;
32106;SDS011;18622;51.998;10.440;2022-11-15T06:13:01;6.43;;;4.07;;
32106;SDS011;18622;51.998;10.440;2022-11-15T06:15:31;8.45;;;3.67;;
32106;SDS011;18622;51.998;10.440;2022-11-15T06:18:00;6.20;;;3.47;;
32106;SDS011;18622;51.998;10.440;2022-11-15T06:20:28;9.00;;;3.37;;
32106;SDS011;18622;51.998;10.440;2022-11-15T06:23:02;5.70;;;3.58;;
32106;SDS011;18622;51.998;10.440;2022-11-15T06:25:30;6.60;;;3.67;;
32106;SDS011;18622;51.998;10.440;2022-11-15T06:27:58;8.30;;;3.08;;
32106;SDS011;18622;51.998;10.440;2022-11-15T10:04:26;5.07;;;1.50;;
32106;SDS011;18622;51.998;10.440;2022-11-15T10:09:35;1.30;;;0.97;;
32106;SDS011;18622;51.998;10.440;2022-11-15T10:12:08;2.30;;;1.20;;
32106;SDS011;18622;51.998;10.440;2022-11-15T10:14:39;3.50;;;1.40;;
32106;SDS011;18622;51.998;10.440;2022-11-15T10:17:26;1.40;;;1.30;;
32106;SDS011;18622;51.998;10.440;2022-11-15T10:22:50;4.20;;;1.20;;
32106;SDS011;18622;51.998;10.440;2022-11-15T10:30:46;2.27;;;1.00;;
32106;SDS011;18622;51.998;10.440;2022-11-15T10:33:21;2.37;;;1.20;;
32106;SDS011;18622;51.998;10.440;2022-11-15T10:41:20;3.17;;;1.60;;
32106;SDS011;18622;51.998;10.440;2022-11-15T10:44:10;1.50;;;1.40;;
32106;SDS011;18622;51.998;10.440;2022-11-15T10:47:20;3.60;;;1.30;;
32106;SDS011;18622;51.998;10.440;2022-11-15T10:52:00;2.43;;;1.30;;
32106;SDS011;18622;51.998;10.440;2022-11-15T10:54:36;1.85;;;1.07;;
32106;SDS011;18622;51.998;10.440;2022-11-15T10:59:35;1.07;;;0.97;;
32106;SDS011;18622;51.998;10.440;2022-11-15T11:02:27;2.67;;;1.37;;
32106;SDS011;18622;51.998;10.440;2022-11-15T11:05:02;1.57;;;1.22;;
32106;SDS011;18622;51.998;10.440;2022-11-15T11:07:33;1.15;;;0.90;;
32106;SDS011;18622;51.998;10.440;2022-11-15T11:10:18;1.45;;;1.00;;
32106;SDS011;18622;51.998;10.440;2022-11-15T11:15:10;2.40;;;1.20;;
32106;SDS011;18622;51.998;10.440;2022-11-15T11:17:57;2.58;;;1.20;;
32106;SDS011;18622;51.998;10.440;2022-11-15T11:20:37;1.17;;;1.07;;
32106;SDS011;18622;51.998;10.440;2022-11-15T11:31:52;2.60;;;1.30;;
32106;SDS011;18622;51.998;10.440;2022-11-15T11:37:17;1.77;;;1.17;;
32106;SDS011;18622;51.998;10.440;2022-11-15T11:39:57;2.08;;;1.17;;
32106;SDS011;18622;51.998;10.440;2022-11-15T11:45:36;1.23;;;1.10;;
32106;SDS011;18622;51.998;10.440;2022-11-15T11:48:10;3.20;;;1.27;;
32106;SDS011;18622;51.998;10.440;2022-11-15T11:50:42;4.17;;;1.30;;
32106;SDS011;18622;51.998;10.440;2022-11-15T11:53:12;3.85;;;1.40;;
32106;SDS011;18622;51.998;10.440;2022-11-15T11:55:55;1.60;;;1.33;;
32106;SDS011;18622;51.998;10.440;2022-11-15T11:58:33;1.97;;;1.30;;
32106;SDS011;18622;51.998;10.440;2022-11-15T16:05:02;8.08;;;5.00;;
32106;SDS011;18622;51.998;10.440;2022-11-15T16:07:30;25.17;;;14.40;;
32106;SDS011;18622;51.998;10.440;2022-11-15T16:09:58;9.97;;;6.23;;
32106;SDS011;18622;51.998;10.440;2022-11-15T16:12:34;18.93;;;7.20;;
32106;SDS011;18622;51.998;10.440;2022-11-15T16:15:01;12.00;;;6.50;;
32106;SDS011;18622;51.998;10.440;2022-11-15T16:17:31;11.95;;;6.40;;
32106;SDS011;18622;51.998;10.440;2022-11-15T16:20:00;14.93;;;9.68;;
32106;SDS011;18622;51.998;10.440;2022-11-15T16:22:28;30.43;;;18.27;;
32106;SDS011;18622;51.998;10.440;2022-11-15T16:24:56;65.20;;;37.67;;
32106;SDS011;18622;51.998;10.440;2022-11-15T16:27:24;50.20;;;32.53;;
32106;SDS011;18622;51.998;10.440;2022-11-15T16:29:52;17.47;;;10.00;;
32106;SDS011;18622;51.998;10.440;2022-11-15T16:32:20;21.80;;;13.17;;
32106;SDS011;18622;51.998;10.440;2022-11-15T16:34:48;26.62;;;15.95;;
32106;SDS011;18622;51.998;10.440;2022-11-15T16:37:22;20.97;;;11.17;;
32106;SDS011;18622;51.998;10.440;2022-11-15T16:39:50;14.57;;;8.80;;
32106;SDS011;18622;51.998;10.440;2022-11-15T16:42:18;11.93;;;8.50;;
32106;SDS011;18622;51.998;10.440;2022-11-15T16:44:46;13.00;;;8.97;;
32106;SDS011;18622;51.998;10.440;2022-11-15T16:47:17;14.97;;;9.47;;
32106;SDS011;18622;51.998;10.440;2022-11-15T16:49:46;17.27;;;9.90;;
32106;SDS011;18622;51.998;10.440;2022-11-15T16:52:14;15.90;;;9.90;;
32106;SDS011;18622;51.998;10.440;2022-11-15T16:54:42;12.83;;;7.03;;
32106;SDS011;18622;51.998;10.440;2022-11-15T16:57:10;12.17;;;6.60;;
32106;SDS011;18622;51.998;10.440;2022-11-15T16:59:37;14.53;;;6.60;;
32106;SDS011;18622;51.998;10.440;2022-11-15T17:02:10;11.77;;;6.90;;
32106;SDS011;18622;51.998;10.440;2022-11-15T17:04:36;13.53;;;7.53;;
32106;SDS011;18622;51.998;10.440;2022-11-15T17:07:04;12.43;;;6.77;;
32106;SDS011;18622;51.998;10.440;2022-11-15T17:09:32;14.27;;;7.63;;
32106;SDS011;18622;51.998;10.440;2022-11-15T17:12:00;12.47;;;7.27;;
32106;SDS011;18622;51.998;10.440;2022-11-15T17:14:27;15.60;;;7.90;;
32106;SDS011;18622;51.998;10.440;2022-11-15T17:16:55;11.33;;;6.63;;
32106;SDS011;18622;51.998;10.440;2022-11-15T17:19:23;19.00;;;9.37;;
32106;SDS011;18622;51.998;10.440;2022-11-15T17:21:51;15.57;;;9.73;;
32106;SDS011;18622;51.998;10.440;2022-11-15T17:24:19;14.23;;;7.63;;
32106;SDS011;18622;51.998;10.440;2022-11-15T17:26:47;14.70;;;8.37;;
32106;SDS011;18622;51.998;10.440;2022-11-15T17:29:14;11.57;;;6.07;;
32106;SDS011;18622;51.998;10.440;2022-11-15T17:31:43;11.93;;;5.83;;
32106;SDS011;18622;51.998;10.440;2022-11-15T17:34:11;11.17;;;5.50;;
32106;SDS011;18622;51.998;10.440;2022-11-15T17:36:38;7.87;;;4.97;;
32106;SDS011;18622;51.998;10.440;2022-11-15T17:39:06;7.67;;;4.13;;
32106;SDS011;18622;51.998;10.440;2022-11-15T17:41:34;9.00;;;4.90;;
32106;SDS011;18622;51.998;10.440;2022-11-15T17:44:02;8.87;;;4.63;;
32106;SDS011;18622;51.998;10.440;2022-11-15T17:46:30;11.10;;;4.33;;
32106;SDS011;18622;51.998;10.440;2022-11-15T17:48:58;27.25;;;12.25;;
32106;SDS011;18622;51.998;10.440;2022-11-15T17:51:26;19.40;;;10.30;;
32106;SDS011;18622;51.998;10.440;2022-11-15T17:53:54;23.57;;;11.93;;
32106;SDS011;18622;51.998;10.440;2022-11-15T17:56:22;21.07;;;10.77;;
32106;SDS011;18622;51.998;10.440;2022-11-15T17:58:53;37.88;;;15.38;;
32106;SDS011;18622;51.998;10.440;2022-11-15T18:01:23;29.40;;;12.90;;
32106;SDS011;18622;51.998;10.440;2022-11-15T18:06:20;23.42;;;9.85;;
32106;SDS011;18622;51.998;10.440;2022-11-15T18:08:50;24.90;;;9.60;;
32106;SDS011;18622;51.998;10.440;2022-11-15T18:11:20;24.18;;;9.28;;
32106;SDS011;18622;51.998;10.440;2022-11-15T18:13:50;25.50;;;9.85;;
32106;SDS011;18622;51.998;10.440;2022-11-15T18:16:23;25.40;;;14.03;;
32106;SDS011;18622;51.998;10.440;2022-11-15T18:18:53;40.15;;;26.12;;
32106;SDS011;18622;51.998;10.440;2022-11-15T18:21:23;38.57;;;24.20;;
32106;SDS011;18622;51.998;10.440;2022-11-15T18:23:52;36.70;;;17.45;;
32106;SDS011;18622;51.998;10.440;2022-11-15T18:28:51;31.93;;;18.98;;
32106;SDS011;18622;51.998;10.440;2022-11-15T18:31:20;33.50;;;18.50;;
32106;SDS011;18622;51.998;10.440;2022-11-15T18:33:53;29.85;;;15.43;;
32106;SDS011;18622;51.998;10.440;2022-11-15T18:36:22;22.45;;;9.55;;
32106;SDS011;18622;51.998;10.440;2022-11-15T18:38:55;18.07;;;9.43;;
32106;SDS011;18622;51.998;10.440;2022-11-15T18:41:24;15.03;;;7.97;;
32106;SDS011;18622;51.998;10.440;2022-11-15T18:43:56;12.10;;;6.67;;
32106;SDS011;18622;51.998;10.440;2022-11-15T18:46:26;10.68;;;6.72;;
32106;SDS011;18622;51.998;10.440;2022-11-15T18:48:57;16.32;;;6.80;;
32106;SDS011;18622;51.998;10.440;2022-11-15T18:51:27;15.95;;;9.50;;
32106;SDS011;18622;51.998;10.440;2022-11-15T18:53:57;17.73;;;9.43;;
32106;SDS011;18622;51.998;10.440;2022-11-15T18:56:26;14.07;;;8.30;;
32106;SDS011;18622;51.998;10.440;2022-11-15T18:58:56;12.83;;;7.30;;
32106;SDS011;18622;51.998;10.440;2022-11-15T19:03:54;9.15;;;5.00;;
32106;SDS011;18622;51.998;10.440;2022-11-15T19:06:25;10.80;;;5.45;;
32106;SDS011;18622;51.998;10.440;2022-11-15T19:08:57;12.20;;;5.77;;
32106;SDS011;18622;51.998;10.440;2022-11-15T19:11:31;10.85;;;4.72;;
32106;SDS011;18622;51.998;10.440;2022-11-15T19:16:28;7.53;;;4.73;;
32106;SDS011;18622;51.998;10.440;2022-11-15T19:21:26;10.63;;;5.33;;
32106;SDS011;18622;51.998;10.440;2022-11-15T19:23:56;11.57;;;6.03;;
32106;SDS011;18622;51.998;10.440;2022-11-15T19:26:25;10.43;;;5.30;;
32106;SDS011;18622;51.998;10.440;2022-11-15T19:28:54;11.37;;;5.63;;
32106;SDS011;18622;51.998;10.440;2022-11-15T19:31:24;17.17;;;5.53;;
32106;SDS011;18622;51.998;10.440;2022-11-15T19:33:54;11.70;;;5.05;;
32106;SDS011;18622;51.998;10.440;2022-11-15T19:36:25;12.95;;;5.90;;
32106;SDS011;18622;51.998;10.440;2022-11-15T19:38:56;13.98;;;5.33;;
32106;SDS011;18622;51.998;10.440;2022-11-15T19:41:24;11.97;;;5.70;;
32106;SDS011;18622;51.998;10.440;2022-11-15T19:43:52;10.30;;;5.60;;
32106;SDS011;18622;51.998;10.440;2022-11-15T19:46:20;13.30;;;6.40;;
32106;SDS011;18622;51.998;10.440;2022-11-15T19:48:49;11.33;;;6.30;;
32106;SDS011;18622;51.998;10.440;2022-11-15T19:51:25;13.32;;;6.35;;
32106;SDS011;18622;51.998;10.440;2022-11-15T19:53:54;12.80;;;5.85;;
32106;SDS011;18622;51.998;10.440;2022-11-15T19:56:23;11.53;;;5.57;;
32106;SDS011;18622;51.998;10.440;2022-11-15T19:58:52;7.73;;;5.03;;
32106;SDS011;18622;51.998;10.440;2022-11-15T20:03:51;7.50;;;4.70;;
32106;SDS011;18622;51.998;10.440;2022-11-15T20:06:25;7.58;;;4.47;;
32106;SDS011;18622;51.998;10.440;2022-11-15T20:08:54;8.40;;;4.53;;
32106;SDS011;18622;51.998;10.440;2022-11-15T20:11:22;16.97;;;4.80;;
32106;SDS011;18622;51.998;10.440;2022-11-15T20:13:50;9.40;;;4.53;;
32106;SDS011;18622;51.998;10.440;2022-11-15T20:16:20;10.20;;;4.00;;
32106;SDS011;18622;51.998;10.440;2022-11-15T20:18:48;8.23;;;4.15;;
32106;SDS011;18622;51.998;10.440;2022-11-15T20:21:18;9.45;;;4.92;;
32106;SDS011;18622;51.998;10.440;2022-11-15T20:23:46;8.00;;;4.75;;
32106;SDS011;18622;51.998;10.440;2022-11-15T20:26:15;11.22;;;5.15;;
32106;SDS011;18622;51.998;10.440;2022-11-15T20:28:43;8.20;;;4.93;;
32106;SDS011;18622;51.998;10.440;2022-11-15T20:31:11;10.97;;;5.67;;
32106;SDS011;18622;51.998;10.440;2022-11-15T20:33:39;9.80;;;5.33;;
32106;SDS011;18622;51.998;10.440;2022-11-15T20:36:08;10.33;;;5.23;;
32106;SDS011;18622;51.998;10.440;2022-11-15T20:38:37;8.98;;;4.67;;
32106;SDS011;18622;51.998;10.440;2022-11-15T20:41:05;8.25;;;4.60;;
32106;SDS011;18622;51.998;10.440;2022-11-15T20:43:33;11.27;;;6.17;;
32106;SDS011;18622;51.998;10.440;2022-11-15T20:46:01;9.30;;;5.57;;
32106;SDS011;18622;51.998;10.440;2022-11-15T20:48:29;12.53;;;5.97;;
32106;SDS011;18622;51.998;10.440;2022-11-15T20:51:10;18.00;;;6.13;;
32106;SDS011;18622;51.998;10.440;2022-11-15T20:53:44;12.23;;;5.70;;
32106;SDS011;18622;51.998;10.440;2022-11-15T20:56:11;14.25;;;5.53;;
32106;SDS011;18622;51.998;10.440;2022-11-15T20:58:40;8.83;;;4.47;;
32106;SDS011;18622;51.998;10.440;2022-11-15T21:01:11;11.47;;;5.10;;
32106;SDS011;18622;51.998;10.440;2022-11-15T21:03:40;11.35;;;5.70;;
32106;SDS011;18622;51.998;10.440;2022-11-15T21:06:09;11.00;;;5.70;;
32106;SDS011;18622;51.998;10.440;2022-11-15T21:08:37;13.20;;;6.50;;
32106;SDS011;18622;51.998;10.440;2022-11-15T21:11:23;11.57;;;6.50;;
32106;SDS011;18622;51.998;10.440;2022-11-15T21:14:09;15.50;;;6.30;;
32106;SDS011;18622;51.998;10.440;2022-11-15T21:16:37;15.60;;;6.43;;
32106;SDS011;18622;51.998;10.440;2022-11-15T21:19:05;11.57;;;5.67;;
32106;SDS011;18622;51.998;10.440;2022-11-15T21:21:38;19.73;;;8.45;;
32106;SDS011;18622;51.998;10.440;2022-11-15T21:26:31;18.00;;;8.40;;
32106;SDS011;18622;51.998;10.440;2022-11-15T21:28:59;18.82;;;8.33;;
32106;SDS011;18622;51.998;10.440;2022-11-15T21:31:27;20.77;;;9.83;;
32106;SDS011;18622;51.998;10.440;2022-11-15T21:33:55;21.93;;;10.47;;
32106;SDS011;18622;51.998;10.440;2022-11-15T21:36:22;14.57;;;8.03;;
32106;SDS011;18622;51.998;10.440;2022-11-15T21:38:50;17.90;;;9.17;;
32106;SDS011;18622;51.998;10.440;2022-11-15T21:41:18;14.80;;;8.37;;
32106;SDS011;18622;51.998;10.440;2022-11-15T21:43:46;16.00;;;8.73;;
32106;SDS011;18622;51.998;10.440;2022-11-15T21:46:14;20.43;;;8.23;;
32106;SDS011;18622;51.998;10.440;2022-11-15T21:48:42;18.05;;;8.10;;
32106;SDS011;18622;51.998;10.440;2022-11-15T21:51:10;13.07;;;7.50;;
32106;SDS011;18622;51.998;10.440;2022-11-15T21:53:38;14.07;;;7.55;;
32106;SDS011;18622;51.998;10.440;2022-11-15T21:56:06;14.43;;;7.57;;
32106;SDS011;18622;51.998;10.440;2022-11-15T21:58:36;11.08;;;7.58;;
